Airfield :
LOGIN :

Register | Disclaimer

   EN    FR    IT 

 










Legend :    VFR   Marginal VFR   IFR   Intensive IFR   Very Intensive IFR
Visi :
Ceiling :
>= 8 km
>= 3000ft
5 to 8 km
1000 to 3000 ft
1500m to 5 km
500 to 1000 ft
800 to 1500m
200 to 500 ft
< 800m
< 200 ft
Symbols :   Thunderstorms  Fog  Heavy snow  Heavy precipitations  Wind > 20 kt
SIGMETs :     Misc.  Thunderstorms  Icing  Turbulence  Mountain Waves  Volcanic Ashes






- Airport Elevation : 1115 ft
- IATA code : GRZ


LOWG - Graz

CURRENT METAR :
  • 230920Z AUTO 19004KT 130V230 CAVOK 19/14 Q1016 NOSIG

EXPIRED METARs :
  • 230850Z AUTO 20004KT 150V250 9999 SCT070 18/13 Q1016 NOSIG
  • 230820Z AUTO VRB03KT 9999 FEW070 17/13 Q1016 NOSIG
  • 230750Z AUTO VRB02KT 9999 FEW050 OVC070 15/13 Q1016 NOSIG
  • 230720Z AUTO VRB01KT 9999 -RA FEW048 SCT050 BKN070 15/13 Q1016 NOSIG
  • 230650Z AUTO VRB01KT 9999 SCT050 BKN060 14/13 Q1016 NOSIG
  • 230620Z AUTO VRB01KT 9999 -RA BKN050 13/12 Q1016 NOSIG
  • 230550Z AUTO VRB01KT 9999 SCT050 BKN070 13/12 Q1016 NOSIG
  • 230520Z AUTO VRB01KT 9999 FEW001 BKN060 13/12 Q1016 NOSIG
  • 230450Z AUTO 24003KT 9999 VCFG FEW060 12/12 Q1016 NOSIG

TAF TAF LOWG
Valid from the 23 at 06:00 until the 24 at 06:00 UTC


230515Z 2306/2406 VRB03KT 9999 SCT030 TX21/2312Z TN10/2403Z
TEMPO 2310/2320 14010KT FEW030CB SCT040
PROB30
TEMPO 2315/2319 VRB15KT TSRA FEW030CB BKN040
TEMPO 2402/2406 1200 BCFG



MET'MAP, your aeronautical weather chart ! - Copyright ORBIFLY December 2007 - Disclaimer

ORBIFLY MET'MAP TEAM :

Programming & Development : Alexandra Zaïnal
Original concept : Baudouin d'Aumeries
Technical & hardware support : Manuel Goepfert
Assistance : Marc-Olivier Méhu




SOURCES & CREDITS :

   NOAA